createdAt,value
2018-03-30T00:02:33.596Z,0.87
2018-03-30T00:05:37.130Z,1.30
2018-03-30T00:08:40.429Z,1.20
2018-03-30T00:11:43.680Z,1.13
2018-03-30T00:14:46.953Z,1.10
2018-03-30T00:17:50.273Z,1.43
2018-03-30T00:20:53.543Z,1.23
2018-03-30T00:23:56.809Z,1.20
2018-03-30T00:27:00.292Z,1.20
2018-03-30T00:30:05.741Z,1.30
2018-03-30T00:33:09.787Z,1.30
2018-03-30T00:36:13.085Z,1.30
2018-03-30T00:39:16.672Z,1.10
2018-03-30T00:42:19.931Z,1.00
2018-03-30T00:45:23.192Z,1.47
2018-03-30T00:48:26.461Z,1.67
2018-03-30T00:51:30.505Z,1.52
2018-03-30T00:54:36.882Z,1.67
2018-03-30T00:57:40.150Z,2.67
2018-03-30T01:00:43.463Z,2.20
2018-03-30T01:03:46.780Z,1.93
2018-03-30T01:06:50.955Z,1.40
2018-03-30T01:09:54.980Z,1.50
2018-03-30T01:12:58.642Z,1.27
2018-03-30T01:16:02.141Z,1.42
2018-03-30T01:19:05.557Z,1.50
2018-03-30T01:22:09.083Z,1.50
2018-03-30T01:25:12.351Z,1.27
2018-03-30T01:28:15.845Z,1.37
2018-03-30T01:31:19.131Z,1.93
2018-03-30T01:34:22.409Z,1.60
2018-03-30T01:37:26.444Z,2.13
2018-03-30T01:40:31.024Z,2.67
2018-03-30T01:43:34.321Z,3.83
2018-03-30T01:46:37.582Z,4.33
2018-03-30T01:49:41.604Z,3.97
2018-03-30T01:52:44.880Z,3.23
2018-03-30T01:55:48.149Z,3.33
2018-03-30T01:58:51.662Z,5.03
2018-03-30T02:01:54.927Z,4.10
2018-03-30T02:04:58.225Z,5.30
2018-03-30T02:08:01.490Z,4.43
2018-03-30T02:11:05.841Z,4.47
2018-03-30T02:14:09.343Z,4.53
2018-03-30T02:17:13.384Z,5.30
2018-03-30T02:20:16.763Z,4.50
2018-03-30T02:23:20.043Z,4.93
2018-03-30T02:26:24.086Z,4.45
2018-03-30T02:29:28.262Z,6.80
2018-03-30T02:32:31.553Z,6.13
2018-03-30T02:35:34.836Z,6.63
2018-03-30T02:38:38.106Z,6.03
2018-03-30T02:41:41.406Z,6.55
2018-03-30T02:44:44.669Z,6.77
2018-03-30T02:47:48.749Z,6.57
2018-03-30T02:50:52.050Z,6.80
2018-03-30T02:53:55.346Z,6.87
2018-03-30T02:56:58.632Z,6.37
2018-03-30T03:00:01.919Z,7.40
2018-03-30T03:03:05.191Z,7.33
2018-03-30T03:06:08.493Z,7.22
2018-03-30T03:09:11.806Z,7.90
2018-03-30T03:12:15.165Z,7.30
2018-03-30T03:15:18.456Z,8.47
2018-03-30T03:18:22.493Z,8.13
2018-03-30T03:21:25.774Z,8.60
2018-03-30T03:24:29.061Z,8.90
2018-03-30T03:27:33.088Z,8.60
2018-03-30T03:30:37.151Z,8.68
2018-03-30T03:33:40.450Z,8.60
2018-03-30T03:36:43.800Z,8.43
2018-03-30T03:39:48.004Z,8.17
2018-03-30T03:42:52.038Z,9.43
2018-03-30T03:45:55.335Z,9.23
2018-03-30T03:48:58.628Z,8.13
2018-03-30T03:52:02.662Z,7.50
2018-03-30T03:55:05.929Z,7.03
2018-03-30T03:58:10.071Z,7.77
2018-03-30T04:01:13.347Z,7.13
2018-03-30T04:04:17.379Z,7.57
2018-03-30T04:07:21.360Z,8.30
2018-03-30T04:10:24.630Z,7.53
2018-03-30T04:13:27.917Z,7.93
2018-03-30T04:16:31.189Z,8.10
2018-03-30T04:19:34.473Z,7.43
2018-03-30T04:22:38.595Z,8.10
2018-03-30T04:25:42.696Z,8.00
2018-03-30T04:28:46.841Z,7.70
2018-03-30T04:31:50.115Z,7.47
2018-03-30T04:34:54.150Z,8.37
2018-03-30T04:37:57.415Z,7.90
2018-03-30T04:41:00.712Z,7.43
2018-03-30T04:44:03.997Z,8.30
2018-03-30T04:47:07.280Z,7.80
2018-03-30T04:50:10.629Z,7.43
2018-03-30T04:53:14.654Z,7.63
2018-03-30T04:56:17.932Z,7.37
2018-03-30T04:59:21.966Z,7.30
2018-03-30T05:02:25.233Z,8.93
2018-03-30T05:05:29.262Z,7.97
2018-03-30T05:08:33.406Z,8.07
2018-03-30T05:11:36.686Z,7.30
2018-03-30T05:14:39.969Z,8.70
2018-03-30T05:17:44.001Z,8.90
2018-03-30T05:20:47.280Z,9.03
2018-03-30T05:23:51.307Z,8.23
2018-03-30T05:26:54.585Z,8.85
2018-03-30T05:29:58.176Z,9.77
2018-03-30T05:33:02.251Z,8.93
2018-03-30T05:36:05.529Z,8.80
2018-03-30T05:39:08.801Z,9.77
2018-03-30T05:42:12.842Z,8.17
2018-03-30T05:45:16.142Z,11.57
2018-03-30T05:48:19.437Z,9.37
2018-03-30T05:51:22.709Z,8.03
2018-03-30T05:54:26.783Z,8.37
2018-03-30T05:57:30.042Z,8.10
2018-03-30T06:00:33.437Z,7.90
2018-03-30T06:03:36.782Z,6.83
2018-03-30T06:06:40.208Z,7.23
2018-03-30T06:09:43.537Z,6.67
2018-03-30T06:12:47.143Z,5.43
2018-03-30T06:15:50.439Z,6.03
2018-03-30T06:18:54.040Z,5.80
2018-03-30T06:21:58.089Z,5.70
2018-03-30T06:25:01.356Z,5.67
2018-03-30T06:28:04.649Z,6.10
2018-03-30T06:31:08.955Z,5.83
2018-03-30T06:34:12.989Z,8.10
2018-03-30T06:37:17.038Z,6.80
2018-03-30T06:40:20.338Z,6.53
2018-03-30T06:43:23.668Z,6.28
2018-03-30T06:46:27.178Z,5.87
2018-03-30T06:49:33.274Z,6.00
2018-03-30T06:52:36.596Z,6.37
2018-03-30T06:55:39.889Z,6.27
2018-03-30T06:58:43.876Z,7.13
2018-03-30T07:01:47.153Z,5.80
2018-03-30T07:04:51.925Z,5.70
2018-03-30T07:07:55.402Z,4.57
2018-03-30T07:10:59.466Z,4.67
2018-03-30T07:14:03.014Z,4.93
2018-03-30T07:17:07.058Z,4.67
2018-03-30T07:20:10.320Z,4.43
2018-03-30T07:23:14.363Z,4.80
2018-03-30T07:26:17.650Z,3.97
2018-03-30T07:29:21.733Z,3.43
2018-03-30T07:32:25.088Z,3.77
2018-03-30T07:35:28.649Z,4.37
2018-03-30T07:38:32.254Z,3.97
2018-03-30T07:41:35.751Z,3.92
2018-03-30T07:44:39.057Z,3.90
2018-03-30T07:47:42.409Z,4.17
2018-03-30T07:50:45.705Z,4.50
2018-03-30T07:53:48.986Z,4.83
2018-03-30T07:56:52.272Z,4.90
2018-03-30T07:59:55.536Z,4.47
2018-03-30T08:02:58.862Z,4.30
2018-03-30T08:06:02.898Z,4.10
2018-03-30T08:09:06.394Z,4.03
2018-03-30T08:12:09.675Z,4.63
2018-03-30T08:15:13.741Z,4.37
2018-03-30T08:18:17.060Z,4.77
2018-03-30T08:21:20.330Z,5.07
2018-03-30T08:24:25.571Z,4.90
2018-03-30T08:27:29.039Z,5.10
2018-03-30T08:30:33.066Z,4.53
2018-03-30T08:33:36.343Z,5.63
2018-03-30T08:36:40.390Z,5.40
2018-03-30T08:39:43.650Z,4.47
2018-03-30T08:42:47.682Z,4.50
2018-03-30T08:45:50.980Z,4.90
2018-03-30T08:48:54.270Z,4.40
2018-03-30T08:51:58.327Z,6.72
2018-03-30T08:55:01.595Z,5.60
2018-03-30T08:58:05.033Z,4.13
2018-03-30T09:01:08.354Z,4.10
2018-03-30T09:04:12.418Z,4.10
2018-03-30T09:07:15.687Z,4.03
2018-03-30T09:10:19.704Z,3.70
2018-03-30T09:13:23.861Z,3.87
2018-03-30T09:16:27.318Z,3.50
2018-03-30T09:19:31.436Z,2.90
2018-03-30T09:22:35.461Z,4.10
2018-03-30T09:25:39.530Z,4.10
2018-03-30T09:28:42.850Z,3.67
2018-03-30T09:31:47.358Z,4.23
2018-03-30T09:34:50.761Z,4.23
2018-03-30T09:37:54.064Z,4.00
2018-03-30T09:40:57.358Z,3.70
2018-03-30T09:44:00.657Z,4.17
2018-03-30T09:47:03.975Z,3.63
2018-03-30T09:50:08.146Z,3.90
2018-03-30T09:53:11.682Z,3.33
2018-03-30T09:56:15.082Z,4.13
2018-03-30T09:59:18.363Z,3.80
2018-03-30T10:02:21.662Z,3.30
2018-03-30T10:05:24.949Z,3.83
2018-03-30T10:08:29.022Z,3.40
2018-03-30T10:11:33.059Z,3.17
2018-03-30T10:14:36.501Z,3.30
2018-03-30T10:17:39.783Z,2.00
2018-03-30T10:20:43.060Z,2.60
2018-03-30T10:23:46.375Z,2.27
2018-03-30T10:26:49.654Z,1.90
2018-03-30T10:29:53.209Z,1.77
2018-03-30T10:32:56.483Z,1.80
2018-03-30T10:36:20.101Z,2.20
2018-03-30T10:39:23.609Z,2.30
2018-03-30T10:42:27.715Z,2.10
2018-03-30T10:45:31.541Z,1.90
2018-03-30T10:48:34.859Z,1.30
2018-03-30T10:51:38.748Z,0.80
2018-03-30T10:54:42.193Z,0.73
2018-03-30T10:57:46.387Z,1.20
2018-03-30T11:00:49.715Z,0.50
2018-03-30T11:03:53.077Z,0.40
2018-03-30T11:06:57.104Z,0.40
2018-03-30T11:10:00.641Z,0.30
2018-03-30T11:13:04.268Z,0.20
2018-03-30T11:16:08.301Z,0.30
2018-03-30T11:19:12.354Z,0.50
2018-03-30T11:22:15.630Z,0.40
2018-03-30T11:25:19.000Z,0.50
2018-03-30T11:28:23.113Z,0.40
2018-03-30T11:31:27.568Z,0.57
2018-03-30T11:34:30.854Z,0.33
2018-03-30T11:37:34.166Z,0.57
2018-03-30T11:40:37.999Z,0.62
2018-03-30T11:43:41.277Z,1.03
2018-03-30T11:46:44.568Z,1.00
2018-03-30T11:49:47.854Z,0.90
2018-03-30T11:52:51.132Z,1.10
2018-03-30T11:55:54.465Z,1.30
2018-03-30T11:58:57.742Z,1.10
2018-03-30T12:02:01.801Z,1.83
2018-03-30T12:05:05.084Z,1.10
2018-03-30T12:08:08.380Z,0.90
2018-03-30T12:11:11.665Z,0.90
2018-03-30T12:14:15.041Z,0.90
2018-03-30T12:17:19.141Z,1.07
2018-03-30T12:20:22.410Z,1.00
2018-03-30T12:23:25.714Z,1.42
2018-03-30T12:26:28.998Z,1.00
2018-03-30T12:29:32.277Z,1.07
2018-03-30T12:32:36.322Z,1.12
2018-03-30T12:35:39.624Z,0.93
2018-03-30T12:38:42.896Z,1.00
2018-03-30T12:41:46.186Z,0.90
2018-03-30T12:44:49.487Z,1.50
2018-03-30T12:47:52.768Z,1.30
2018-03-30T12:50:56.159Z,1.47
2018-03-30T12:54:00.207Z,1.90
2018-03-30T12:57:03.486Z,1.75
2018-03-30T13:00:07.528Z,1.40
2018-03-30T13:03:16.546Z,1.30
2018-03-30T13:06:19.976Z,1.30
2018-03-30T13:09:23.250Z,1.40
2018-03-30T13:12:30.706Z,0.70
2018-03-30T13:15:34.775Z,1.00
2018-03-30T13:18:38.133Z,1.10
2018-03-30T13:21:42.255Z,1.10
2018-03-30T13:24:46.705Z,1.10
2018-03-30T13:27:50.082Z,1.10
2018-03-30T13:30:53.370Z,2.63
2018-03-30T13:33:57.626Z,1.20
2018-03-30T13:37:01.007Z,1.30
2018-03-30T13:40:04.507Z,1.00
2018-03-30T13:43:07.897Z,1.00
2018-03-30T13:46:11.240Z,1.40
2018-03-30T13:49:14.586Z,1.30
2018-03-30T13:52:28.389Z,1.60
2018-03-30T13:55:33.490Z,1.30
2018-03-30T13:58:52.559Z,1.50
2018-03-30T14:01:58.534Z,1.70
2018-03-30T14:05:06.636Z,1.17
2018-03-30T14:08:21.169Z,1.40
2018-03-30T14:11:26.110Z,1.60
2018-03-30T14:14:31.067Z,1.60
2018-03-30T14:17:39.693Z,1.90
2018-03-30T14:20:45.705Z,1.93
2018-03-30T14:23:50.942Z,1.60
2018-03-30T14:26:56.167Z,1.40
2018-03-30T14:30:21.083Z,1.70
2018-03-30T14:33:29.033Z,1.37
2018-03-30T14:40:20.056Z,1.00
2018-03-30T14:43:26.286Z,1.20
2018-03-30T14:47:06.029Z,1.00
2018-03-30T14:50:23.029Z,0.97
2018-03-30T14:53:32.446Z,0.80
2018-03-30T14:56:41.033Z,0.90
2018-03-30T14:59:49.615Z,1.03
2018-03-30T15:02:55.760Z,1.37
2018-03-30T15:06:12.278Z,1.20
2018-03-30T15:09:26.131Z,0.80
2018-03-30T15:16:14.776Z,1.37
2018-03-30T15:19:19.634Z,1.00
2018-03-30T15:22:27.369Z,1.23
2018-03-30T15:25:44.883Z,1.05
2018-03-30T15:28:53.710Z,0.90
2018-03-30T15:32:08.282Z,0.90
2018-03-30T15:35:13.393Z,1.00
2018-03-30T15:38:16.718Z,0.77
2018-03-30T15:41:20.010Z,0.93
2018-03-30T15:44:23.281Z,0.80
2018-03-30T15:47:26.672Z,1.00
2018-03-30T15:50:31.945Z,1.00
2018-03-30T15:53:34.501Z,0.70
2018-03-30T16:00:11.109Z,1.00
2018-03-30T16:03:14.396Z,0.87
2018-03-30T16:06:17.685Z,0.90
2018-03-30T16:09:25.093Z,0.70
2018-03-30T16:12:30.033Z,1.07
2018-03-30T16:15:33.313Z,0.90
2018-03-30T16:22:09.564Z,0.90
2018-03-30T16:25:12.842Z,0.80
2018-03-30T16:28:15.350Z,0.80
2018-03-30T16:31:17.842Z,0.60
2018-03-30T16:34:22.370Z,0.93
2018-03-30T16:37:25.657Z,0.80
2018-03-30T16:40:28.144Z,0.90
2018-03-30T16:43:31.401Z,0.60
2018-03-30T16:46:45.526Z,0.60
2018-03-30T16:49:48.833Z,0.50
2018-03-30T16:52:51.339Z,0.60
2018-03-30T16:55:53.829Z,0.50
2018-03-30T16:58:56.338Z,0.60
2018-03-30T17:01:59.863Z,0.65
2018-03-30T17:05:02.520Z,0.87
2018-03-30T17:08:05.789Z,0.60
2018-03-30T17:11:08.297Z,0.63
2018-03-30T17:14:11.550Z,0.70
2018-03-30T17:17:14.131Z,0.70
2018-03-30T17:20:17.432Z,0.57
2018-03-30T17:23:19.917Z,0.50
2018-03-30T17:26:22.408Z,0.50
2018-03-30T17:29:24.929Z,0.90
2018-03-30T17:32:27.412Z,0.77
2018-03-30T17:35:30.848Z,0.80
2018-03-30T17:38:33.337Z,0.97
2018-03-30T17:41:35.830Z,0.70
2018-03-30T17:44:38.317Z,0.93
2018-03-30T17:47:41.868Z,1.33
2018-03-30T17:50:44.711Z,2.10
2018-03-30T17:53:47.970Z,1.60
2018-03-30T17:56:50.455Z,1.87
2018-03-30T17:59:53.756Z,2.13
2018-03-30T18:02:56.293Z,2.57
2018-03-30T18:05:58.802Z,2.70
2018-03-30T18:09:01.362Z,2.17
2018-03-30T18:12:03.833Z,2.03
2018-03-30T18:15:06.342Z,2.60
2018-03-30T18:18:11.345Z,1.90
2018-03-30T18:21:14.353Z,1.80
2018-03-30T18:24:18.130Z,1.80
2018-03-30T18:27:20.604Z,2.73
2018-03-30T18:30:23.113Z,2.00
2018-03-30T18:33:25.598Z,2.80
2018-03-30T18:36:28.176Z,2.70
2018-03-30T18:39:32.322Z,3.13
2018-03-30T18:42:34.874Z,3.00
2018-03-30T18:45:37.354Z,2.80
2018-03-30T18:48:39.845Z,3.30
2018-03-30T18:51:42.330Z,2.50
2018-03-30T18:54:44.848Z,2.67
2018-03-30T18:57:47.336Z,2.60
2018-03-30T19:00:49.883Z,3.53
2018-03-30T19:03:52.425Z,2.53
2018-03-30T19:06:54.933Z,2.90
2018-03-30T19:09:57.433Z,2.97
2018-03-30T19:13:00.146Z,3.72
2018-03-30T19:16:03.174Z,3.50
2018-03-30T19:19:05.715Z,3.30
2018-03-30T19:22:08.234Z,3.40
2018-03-30T19:25:10.710Z,3.60
2018-03-30T19:28:13.597Z,3.23
2018-03-30T19:31:16.689Z,3.15
2018-03-30T19:34:19.202Z,3.90
2018-03-30T19:37:21.705Z,3.30
2018-03-30T19:40:24.181Z,3.20
2018-03-30T19:43:26.690Z,4.07
2018-03-30T19:46:29.987Z,4.80
2018-03-30T19:49:33.225Z,4.33
2018-03-30T19:52:35.694Z,4.13
2018-03-30T19:55:38.177Z,3.77
2018-03-30T19:58:40.648Z,3.77
2018-03-30T20:01:43.128Z,3.30
2018-03-30T20:04:45.606Z,2.87
2018-03-30T20:07:48.113Z,3.80
2018-03-30T20:10:50.636Z,3.07
2018-03-30T20:13:53.915Z,3.37
2018-03-30T20:16:56.410Z,2.70
2018-03-30T20:19:58.894Z,3.33
2018-03-30T20:23:02.205Z,2.70
2018-03-30T20:26:04.687Z,2.40
2018-03-30T20:29:07.221Z,2.80
2018-03-30T20:32:09.710Z,2.80
2018-03-30T20:35:13.027Z,4.40
2018-03-30T20:38:16.271Z,4.17
2018-03-30T20:41:18.746Z,3.33
2018-03-30T20:44:21.233Z,2.80
2018-03-30T20:47:23.738Z,3.07
2018-03-30T20:50:26.217Z,2.87
2018-03-30T20:53:28.717Z,3.17
2018-03-30T20:56:32.180Z,2.80
2018-03-30T20:59:36.254Z,2.77
2018-03-30T21:02:38.753Z,2.60
2018-03-30T21:05:41.249Z,1.87
2018-03-30T21:08:43.729Z,1.70
2018-03-30T21:11:47.534Z,1.97
2018-03-30T21:14:50.194Z,1.43
2018-03-30T21:17:52.707Z,1.40
2018-03-30T21:20:55.217Z,1.60
2018-03-30T21:23:58.090Z,2.00
2018-03-30T21:27:01.526Z,1.77
2018-03-30T21:33:15.729Z,2.20
2018-03-30T21:36:18.206Z,2.03
2018-03-30T21:39:20.799Z,1.80
2018-03-30T21:42:23.367Z,2.13
2018-03-30T21:45:26.342Z,2.40
2018-03-30T21:48:30.638Z,2.60
2018-03-30T21:51:33.157Z,3.07
2018-03-30T21:54:35.631Z,3.07
2018-03-30T21:57:38.908Z,3.23
2018-03-30T22:00:44.732Z,2.57
2018-03-30T22:03:48.294Z,3.40
2018-03-30T22:06:52.739Z,3.40
2018-03-30T22:09:55.337Z,3.50
2018-03-30T22:12:57.894Z,2.92
2018-03-30T22:16:11.148Z,2.80
2018-03-30T22:19:29.519Z,3.03
2018-03-30T22:22:34.487Z,3.22
2018-03-30T22:25:37.757Z,2.20
2018-03-30T22:28:40.349Z,2.17
2018-03-30T22:31:42.833Z,1.85
2018-03-30T22:34:45.347Z,1.77
2018-03-30T22:37:47.850Z,1.37
2018-03-30T22:40:50.361Z,1.77
2018-03-30T22:43:52.852Z,1.37
2018-03-30T22:46:55.333Z,1.40
2018-03-30T22:49:57.917Z,1.40
2018-03-30T22:53:00.392Z,1.70
2018-03-30T22:56:03.476Z,1.73
2018-03-30T22:59:05.957Z,1.20
2018-03-30T23:02:09.982Z,1.43
2018-03-30T23:05:12.465Z,1.47
2018-03-30T23:08:14.939Z,1.40
2018-03-30T23:11:17.426Z,1.43
2018-03-30T23:14:19.901Z,1.50
2018-03-30T23:17:23.175Z,1.67
2018-03-30T23:20:25.667Z,1.50
2018-03-30T23:23:28.182Z,1.03
2018-03-30T23:26:31.444Z,1.03
2018-03-30T23:29:33.929Z,1.10
2018-03-30T23:32:37.196Z,1.10
2018-03-30T23:35:39.691Z,1.30
2018-03-30T23:38:42.179Z,1.23
2018-03-30T23:41:44.658Z,1.47
2018-03-30T23:44:47.130Z,1.30
2018-03-30T23:47:49.604Z,0.90
2018-03-30T23:50:52.097Z,1.20
2018-03-30T23:53:54.589Z,0.90
2018-03-30T23:56:57.105Z,0.70
2018-03-30T23:59:59.618Z,0.70
